Terminal Aerodrome Forecast
Issued by NWS Lake Charles, LA

Home | Current Version | Previous Version | Text Only | Print | Product List | Glossary On
Versions: 1 2 3 4 5 6 7 8 9 10 11 12
488
FTUS44 KLCH 260520
TAFLFT
TAF
KLFT 260520Z 2606/2706 17010KT P6SM SCT015 BKN035
      TEMPO 2606/2608 BKN015
     FM260800 18012KT P6SM OVC015
      TEMPO 2609/2613 OVC007
     FM261500 18014G22KT P6SM OVC025
     FM261800 19018G28KT P6SM SCT025 BKN035
      TEMPO 2703/2706 2SM TSRA OVC008CB=

USA.gov is the U.S. government's official web portal to all federal, state and local government web resources and services.